Van Horn's Hourly Summary for Tuesday, October 20, 2020
Hour Temp
(f)
RH
(%)
Solar Rad.
(MJ/m2)
Rainfall
(in)
Wind
(mph)
Battery
(volts)
10/20/2020 12:00 AM 59 17 0 0 7.56 0
10/20/2020 1:00 AM 61 18 0 0 9.2 0
10/20/2020 2:00 AM 57 21 0 0 5.9 0
10/20/2020 3:00 AM 59 37 0 0 5.19 0
10/20/2020 4:00 AM 60 54 0 0 10.72 0
10/20/2020 5:00 AM 57 54 0 0 8.49 0
10/20/2020 6:00 AM 54 57 0 0 7.92 0
10/20/2020 7:00 AM 53 58 0 0 5.19 0
10/20/2020 8:00 AM 46 61 0.06 0 3.61 0
10/20/2020 9:00 AM 59 52 0.25 0 3.2 0
10/20/2020 10:00 AM 69 46 0.43 0 7.29 0
10/20/2020 11:00 AM 79 28 0.57 0 6.97 0
10/20/2020 12:00 PM 84 22 0.66 0 4.35 0
10/20/2020 1:00 PM 87 15 0.69 0 4.27 0
10/20/2020 2:00 PM 89 6 0.66 0 3.15 0
10/20/2020 3:00 PM 90 7 0.58 0 3.4 0
10/20/2020 4:00 PM 90 8 0.45 0 5.94 0
10/20/2020 5:00 PM 89 4 0.28 0 7.86 0
10/20/2020 6:00 PM 87 7 0.09 0 3.16 0
10/20/2020 7:00 PM 76 8 0 0 0.79 0
10/20/2020 8:00 PM 68 12 0 0 0.84 0
10/20/2020 9:00 PM 64 17 0 0 1.54 0
10/20/2020 10:00 PM 58 18 0 0 2.86 0
10/20/2020 11:00 PM 57 16 0 0 7.36 0
Data Summary 68 26 4.72 0.00 5.28 0.00